sensor_id;sensor_type;location;lat;lon;timestamp;pressure;altitude;pressure_sealevel;temperature;humidity
5988;BME280;3021;51.000;6.980;2023-06-01T00:01:48;68171.97;;;16.74;100.00
5988;BME280;3021;51.000;6.980;2023-06-01T00:04:14;68169.19;;;16.74;100.00
5988;BME280;3021;51.000;6.980;2023-06-01T00:06:40;68166.63;;;16.67;100.00
5988;BME280;3021;51.000;6.980;2023-06-01T00:09:05;68152.38;;;16.59;100.00
5988;BME280;3021;51.000;6.980;2023-06-01T00:11:31;68168.50;;;16.71;100.00
5988;BME280;3021;51.000;6.980;2023-06-01T00:13:57;68203.34;;;17.02;100.00
5988;BME280;3021;51.000;6.980;2023-06-01T00:16:22;68206.84;;;17.05;100.00
5988;BME280;3021;51.000;6.980;2023-06-01T00:18:48;68235.91;;;17.31;100.00
5988;BME280;3021;51.000;6.980;2023-06-01T00:21:13;68238.34;;;17.35;100.00
5988;BME280;3021;51.000;6.980;2023-06-01T00:23:39;68234.16;;;17.29;100.00
5988;BME280;3021;51.000;6.980;2023-06-01T00:26:06;68244.03;;;17.38;100.00
5988;BME280;3021;51.000;6.980;2023-06-01T00:28:32;68249.84;;;17.43;100.00
5988;BME280;3021;51.000;6.980;2023-06-01T00:30:58;68258.69;;;17.53;100.00
5988;BME280;3021;51.000;6.980;2023-06-01T00:33:23;68234.16;;;17.29;100.00
5988;BME280;3021;51.000;6.980;2023-06-01T00:35:48;68259.84;;;17.54;100.00
5988;BME280;3021;51.000;6.980;2023-06-01T00:38:14;68257.53;;;17.52;100.00
5988;BME280;3021;51.000;6.980;2023-06-01T00:40:40;68248.69;;;17.42;100.00
5988;BME280;3021;51.000;6.980;2023-06-01T00:43:05;68242.28;;;17.36;100.00
5988;BME280;3021;51.000;6.980;2023-06-01T00:45:31;68238.22;;;17.33;100.00
5988;BME280;3021;51.000;6.980;2023-06-01T00:47:56;68227.75;;;17.23;100.00
5988;BME280;3021;51.000;6.980;2023-06-01T00:50:23;68219.63;;;17.16;100.00
5988;BME280;3021;51.000;6.980;2023-06-01T00:52:51;68224.25;;;17.20;100.00
5988;BME280;3021;51.000;6.980;2023-06-01T00:55:19;68241.84;;;17.38;100.00
5988;BME280;3021;51.000;6.980;2023-06-01T00:57:45;68227.16;;;17.23;100.00
5988;BME280;3021;51.000;6.980;2023-06-01T01:00:11;68222.53;;;17.19;100.00
5988;BME280;3021;51.000;6.980;2023-06-01T01:02:41;68233.56;;;17.28;100.00
5988;BME280;3021;51.000;6.980;2023-06-01T01:05:10;68216.88;;;17.16;100.00
5988;BME280;3021;51.000;6.980;2023-06-01T01:07:57;68218.47;;;17.15;100.00
5988;BME280;3021;51.000;6.980;2023-06-01T01:10:31;68209.75;;;17.07;100.00
5988;BME280;3021;51.000;6.980;2023-06-01T01:15:47;68189.25;;;16.87;100.00
5988;BME280;3021;51.000;6.980;2023-06-01T01:18:25;68181.97;;;16.85;100.00
5988;BME280;3021;51.000;6.980;2023-06-01T01:20:57;68178.34;;;16.80;100.00
5988;BME280;3021;51.000;6.980;2023-06-01T01:23:52;68165.13;;;16.70;100.00
5988;BME280;3021;51.000;6.980;2023-06-01T01:29:29;68166.16;;;16.69;100.00
5988;BME280;3021;51.000;6.980;2023-06-01T01:31:55;68157.44;;;16.61;100.00
5988;BME280;3021;51.000;6.980;2023-06-01T01:34:24;68145.69;;;16.48;100.00
5988;BME280;3021;51.000;6.980;2023-06-01T01:36:51;68134.09;;;16.38;100.00
5988;BME280;3021;51.000;6.980;2023-06-01T01:39:17;68135.97;;;16.42;100.00
5988;BME280;3021;51.000;6.980;2023-06-01T01:41:42;68130.16;;;16.37;100.00
5988;BME280;3021;51.000;6.980;2023-06-01T01:44:07;68122.03;;;16.30;100.00
5988;BME280;3021;51.000;6.980;2023-06-01T01:46:41;68130.16;;;16.37;100.00
5988;BME280;3021;51.000;6.980;2023-06-01T01:51:47;68120.16;;;16.26;100.00
5988;BME280;3021;51.000;6.980;2023-06-01T01:54:14;68119.72;;;16.28;100.00
5988;BME280;3021;51.000;6.980;2023-06-01T01:56:39;68113.34;;;16.22;100.00
5988;BME280;3021;51.000;6.980;2023-06-01T01:59:06;68110.84;;;16.17;100.00
5988;BME280;3021;51.000;6.980;2023-06-01T02:01:32;68102.88;;;16.13;100.00
5988;BME280;3021;51.000;6.980;2023-06-01T02:04:02;68110.44;;;16.19;100.00
5988;BME280;3021;51.000;6.980;2023-06-01T02:06:28;68115.78;;;16.27;100.00
5988;BME280;3021;51.000;6.980;2023-06-01T02:08:53;68119.13;;;16.27;100.00
5988;BME280;3021;51.000;6.980;2023-06-01T02:11:19;68111.59;;;16.20;100.00
5988;BME280;3021;51.000;6.980;2023-06-01T02:13:44;68101.84;;;16.14;100.00
5988;BME280;3021;51.000;6.980;2023-06-01T02:16:09;68097.66;;;16.08;100.00
5988;BME280;3021;51.000;6.980;2023-06-01T02:18:35;68092.44;;;16.03;100.00
5988;BME280;3021;51.000;6.980;2023-06-01T02:21:04;68099.84;;;16.08;100.00
5988;BME280;3021;51.000;6.980;2023-06-01T02:23:30;68094.88;;;16.08;100.00
5988;BME280;3021;51.000;6.980;2023-06-01T02:25:55;68090.09;;;16.01;100.00
5988;BME280;3021;51.000;6.980;2023-06-01T02:28:20;68080.22;;;15.93;100.00
5988;BME280;3021;51.000;6.980;2023-06-01T02:30:46;68077.47;;;15.93;100.00
5988;BME280;3021;51.000;6.980;2023-06-01T02:33:11;68076.75;;;15.89;100.00
5988;BME280;3021;51.000;6.980;2023-06-01T02:35:36;68067.91;;;15.79;100.00
5988;BME280;3021;51.000;6.980;2023-06-01T02:38:02;68055.38;;;15.73;100.00
5988;BME280;3021;51.000;6.980;2023-06-01T02:40:27;68048.28;;;15.64;100.00
5988;BME280;3021;51.000;6.980;2023-06-01T02:42:53;68038.44;;;15.55;100.00
5988;BME280;3021;51.000;6.980;2023-06-01T02:45:18;68031.47;;;15.49;100.00
5988;BME280;3021;51.000;6.980;2023-06-01T02:47:43;68021.63;;;15.41;100.00
5988;BME280;3021;51.000;6.980;2023-06-01T02:50:10;68018.72;;;15.38;100.00
5988;BME280;3021;51.000;6.980;2023-06-01T02:52:35;68011.75;;;15.32;100.00
5988;BME280;3021;51.000;6.980;2023-06-01T02:55:01;68003.75;;;15.27;100.00
5988;BME280;3021;51.000;6.980;2023-06-01T02:57:26;68003.19;;;15.27;100.00
5988;BME280;3021;51.000;6.980;2023-06-01T02:59:51;68003.63;;;15.25;100.00
5988;BME280;3021;51.000;6.980;2023-06-01T03:02:17;67995.06;;;15.19;100.00
5988;BME280;3021;51.000;6.980;2023-06-01T03:04:42;68007.69;;;15.28;100.00
5988;BME280;3021;51.000;6.980;2023-06-01T03:07:08;68004.19;;;15.25;100.00
5988;BME280;3021;51.000;6.980;2023-06-01T03:09:34;67989.97;;;15.17;100.00
5988;BME280;3021;51.000;6.980;2023-06-01T03:11:59;67994.34;;;15.16;100.00
5988;BME280;3021;51.000;6.980;2023-06-01T03:14:26;67991.31;;;15.11;100.00
5988;BME280;3021;51.000;6.980;2023-06-01T03:16:51;67989.00;;;15.09;100.00
5988;BME280;3021;51.000;6.980;2023-06-01T03:19:17;67983.31;;;15.07;100.00
5988;BME280;3021;51.000;6.980;2023-06-01T03:21:42;67984.91;;;15.06;100.00
5988;BME280;3021;51.000;6.980;2023-06-01T03:24:07;67984.50;;;15.08;100.00
5988;BME280;3021;51.000;6.980;2023-06-01T03:26:33;68001.88;;;15.23;100.00
5988;BME280;3021;51.000;6.980;2023-06-01T03:28:59;68009.41;;;15.30;100.00
5988;BME280;3021;51.000;6.980;2023-06-01T03:31:24;67994.50;;;15.19;100.00
5988;BME280;3021;51.000;6.980;2023-06-01T03:33:50;67994.91;;;15.17;100.00
5988;BME280;3021;51.000;6.980;2023-06-01T03:36:15;67993.75;;;15.16;100.00
5988;BME280;3021;51.000;6.980;2023-06-01T03:38:41;67981.59;;;15.05;100.00
5988;BME280;3021;51.000;6.980;2023-06-01T03:41:08;67985.50;;;15.06;100.00
5988;BME280;3021;51.000;6.980;2023-06-01T03:43:33;67982.75;;;15.06;100.00
5988;BME280;3021;51.000;6.980;2023-06-01T03:45:58;67988.41;;;15.09;100.00
5988;BME280;3021;51.000;6.980;2023-06-01T03:48:23;67970.56;;;14.95;100.00
5988;BME280;3021;51.000;6.980;2023-06-01T03:50:49;67969.41;;;14.94;100.00
5988;BME280;3021;51.000;6.980;2023-06-01T03:53:15;67971.00;;;14.93;100.00
5988;BME280;3021;51.000;6.980;2023-06-01T03:55:40;67979.25;;;15.03;100.00
5988;BME280;3021;51.000;6.980;2023-06-01T03:58:05;67967.66;;;14.93;100.00
5988;BME280;3021;51.000;6.980;2023-06-01T04:00:32;67957.81;;;14.84;100.00
5988;BME280;3021;51.000;6.980;2023-06-01T04:02:59;67964.19;;;14.90;100.00
5988;BME280;3021;51.000;6.980;2023-06-01T04:05:27;67967.66;;;14.93;100.00
5988;BME280;3021;51.000;6.980;2023-06-01T04:07:53;67970.41;;;14.93;100.00
5988;BME280;3021;51.000;6.980;2023-06-01T04:10:19;67975.19;;;14.99;100.00
5988;BME280;3021;51.000;6.980;2023-06-01T04:12:48;67971.13;;;14.96;100.00
5988;BME280;3021;51.000;6.980;2023-06-01T04:15:18;67972.44;;;14.99;100.00
5988;BME280;3021;51.000;6.980;2023-06-01T04:17:44;67974.19;;;15.01;100.00
5988;BME280;3021;51.000;6.980;2023-06-01T04:20:11;67978.69;;;15.02;100.00
5988;BME280;3021;51.000;6.980;2023-06-01T04:22:37;67986.66;;;15.07;100.00
5988;BME280;3021;51.000;6.980;2023-06-01T04:25:05;67987.38;;;15.10;100.00
5988;BME280;3021;51.000;6.980;2023-06-01T04:27:32;67993.91;;;15.18;100.00
5988;BME280;3021;51.000;6.980;2023-06-01T04:30:02;68006.50;;;15.27;100.00
5988;BME280;3021;51.000;6.980;2023-06-01T04:32:27;68016.97;;;15.36;100.00
5988;BME280;3021;51.000;6.980;2023-06-01T04:34:53;68021.63;;;15.41;100.00
5988;BME280;3021;51.000;6.980;2023-06-01T04:37:18;68026.81;;;15.45;100.00
5988;BME280;3021;51.000;6.980;2023-06-01T04:39:49;68032.63;;;15.50;100.00
5988;BME280;3021;51.000;6.980;2023-06-01T04:42:16;68043.22;;;15.62;100.00
5988;BME280;3021;51.000;6.980;2023-06-01T04:44:43;68066.88;;;15.81;100.00
5988;BME280;3021;51.000;6.980;2023-06-01T04:47:10;68071.09;;;15.87;100.00
5988;BME280;3021;51.000;6.980;2023-06-01T04:49:35;68071.09;;;15.87;100.00
5988;BME280;3021;51.000;6.980;2023-06-01T04:52:02;68070.50;;;15.86;100.00
5988;BME280;3021;51.000;6.980;2023-06-01T04:54:29;68086.75;;;16.01;100.00
5988;BME280;3021;51.000;6.980;2023-06-01T04:56:55;68094.31;;;16.08;100.00
5988;BME280;3021;51.000;6.980;2023-06-01T04:59:20;68100.09;;;16.13;100.00
5988;BME280;3021;51.000;6.980;2023-06-01T05:01:46;68119.72;;;16.28;100.00
5988;BME280;3021;51.000;6.980;2023-06-01T05:04:11;68137.72;;;16.44;100.00
5988;BME280;3021;51.000;6.980;2023-06-01T05:06:36;68182.41;;;16.83;100.00
5988;BME280;3021;51.000;6.980;2023-06-01T05:09:02;68243.56;;;17.40;100.00
5988;BME280;3021;51.000;6.980;2023-06-01T05:11:30;68445.97;;;19.19;100.00
5988;BME280;3021;51.000;6.980;2023-06-01T05:13:55;68812.63;;;22.46;100.00
5988;BME280;3021;51.000;6.980;2023-06-01T05:16:26;69053.75;;;24.58;100.00
5988;BME280;3021;51.000;6.980;2023-06-01T05:18:52;69174.75;;;25.65;100.00
5988;BME280;3021;51.000;6.980;2023-06-01T05:21:17;69303.56;;;26.81;100.00
5988;BME280;3021;51.000;6.980;2023-06-01T05:23:42;69360.22;;;27.28;100.00
5988;BME280;3021;51.000;6.980;2023-06-01T05:26:08;69401.78;;;27.65;100.00
5988;BME280;3021;51.000;6.980;2023-06-01T05:28:33;69467.28;;;28.20;100.00
5988;BME280;3021;51.000;6.980;2023-06-01T05:31:00;69333.88;;;27.05;100.00
5988;BME280;3021;51.000;6.980;2023-06-01T05:33:26;69229.16;;;26.13;100.00
5988;BME280;3021;51.000;6.980;2023-06-01T05:35:51;69064.28;;;24.67;100.00
5988;BME280;3021;51.000;6.980;2023-06-01T05:38:17;68948.03;;;23.65;100.00
5988;BME280;3021;51.000;6.980;2023-06-01T05:40:45;68842.97;;;22.72;100.00
5988;BME280;3021;51.000;6.980;2023-06-01T05:43:10;68797.19;;;22.27;100.00
5988;BME280;3021;51.000;6.980;2023-06-01T05:45:36;68730.84;;;21.71;100.00
5988;BME280;3021;51.000;6.980;2023-06-01T05:48:02;68775.03;;;22.07;100.00
5988;BME280;3021;51.000;6.980;2023-06-01T05:50:27;68837.00;;;22.65;100.00
5988;BME280;3021;51.000;6.980;2023-06-01T05:52:52;68849.81;;;22.76;100.00
5988;BME280;3021;51.000;6.980;2023-06-01T05:55:18;68886.59;;;23.08;100.00
5988;BME280;3021;51.000;6.980;2023-06-01T05:57:44;68864.53;;;22.91;100.00
5988;BME280;3021;51.000;6.980;2023-06-01T06:00:11;68870.13;;;22.91;100.00
5988;BME280;3021;51.000;6.980;2023-06-01T06:02:38;68863.72;;;22.86;100.00
5988;BME280;3021;51.000;6.980;2023-06-01T06:05:04;68933.75;;;23.47;100.00
5988;BME280;3021;51.000;6.980;2023-06-01T06:07:29;68974.75;;;23.86;100.00
5988;BME280;3021;51.000;6.980;2023-06-01T06:09:55;69010.38;;;24.18;100.00
5988;BME280;3021;51.000;6.980;2023-06-01T06:12:21;68956.66;;;23.70;100.00
5988;BME280;3021;51.000;6.980;2023-06-01T06:14:46;69032.72;;;24.40;100.00
5988;BME280;3021;51.000;6.980;2023-06-01T06:17:12;69322.66;;;26.93;100.00
5988;BME280;3021;51.000;6.980;2023-06-01T06:19:37;69622.59;;;29.56;100.00
5988;BME280;3021;51.000;6.980;2023-06-01T06:22:03;69735.91;;;30.58;100.00
5988;BME280;3021;51.000;6.980;2023-06-01T06:24:28;69967.28;;;32.64;100.00
5988;BME280;3021;51.000;6.980;2023-06-01T06:26:54;70019.00;;;33.09;100.00
5988;BME280;3021;51.000;6.980;2023-06-01T06:29:19;69970.13;;;32.64;100.00
5988;BME280;3021;51.000;6.980;2023-06-01T06:31:45;70000.13;;;32.90;100.00
5988;BME280;3021;51.000;6.980;2023-06-01T06:34:13;70112.47;;;33.91;100.00
5988;BME280;3021;51.000;6.980;2023-06-01T06:36:39;70088.94;;;33.70;100.00
5988;BME280;3021;51.000;6.980;2023-06-01T06:39:04;69828.03;;;31.39;100.00
5988;BME280;3021;51.000;6.980;2023-06-01T06:41:30;69649.06;;;29.82;100.00
5988;BME280;3021;51.000;6.980;2023-06-01T06:43:55;69754.09;;;30.74;100.00
5988;BME280;3021;51.000;6.980;2023-06-01T06:46:21;69524.69;;;28.70;100.00
5988;BME280;3021;51.000;6.980;2023-06-01T06:48:46;69257.09;;;26.35;100.00
5988;BME280;3021;51.000;6.980;2023-06-01T06:51:11;69162.94;;;25.52;100.00
5988;BME280;3021;51.000;6.980;2023-06-01T06:53:37;69194.50;;;25.80;100.00
5988;BME280;3021;51.000;6.980;2023-06-01T06:56:02;69113.81;;;25.09;100.00
5988;BME280;3021;51.000;6.980;2023-06-01T06:58:27;68978.75;;;23.87;100.00
5988;BME280;3021;51.000;6.980;2023-06-01T07:00:53;68885.28;;;23.05;100.00
5988;BME280;3021;51.000;6.980;2023-06-01T07:03:18;68842.72;;;22.67;100.00
5988;BME280;3021;51.000;6.980;2023-06-01T07:05:44;68839.78;;;22.65;100.00
5988;BME280;3021;51.000;6.980;2023-06-01T07:08:10;68848.56;;;22.72;100.00
5988;BME280;3021;51.000;6.980;2023-06-01T07:10:36;68858.47;;;22.81;100.00
5988;BME280;3021;51.000;6.980;2023-06-01T07:13:01;68856.84;;;22.82;100.00
5988;BME280;3021;51.000;6.980;2023-06-01T07:15:27;68839.34;;;22.67;100.00
5988;BME280;3021;51.000;6.980;2023-06-01T07:17:52;68819.97;;;22.47;100.00
5988;BME280;3021;51.000;6.980;2023-06-01T07:20:17;68821.25;;;22.51;100.00
5988;BME280;3021;51.000;6.980;2023-06-01T07:22:43;68851.47;;;22.75;100.00
5988;BME280;3021;51.000;6.980;2023-06-01T07:25:09;68864.28;;;22.86;100.00
5988;BME280;3021;51.000;6.980;2023-06-01T07:27:35;68873.63;;;22.94;100.00
5988;BME280;3021;51.000;6.980;2023-06-01T07:30:04;68870.84;;;22.94;100.00
5988;BME280;3021;51.000;6.980;2023-06-01T07:32:30;68875.50;;;22.99;100.00
5988;BME280;3021;51.000;6.980;2023-06-01T07:34:56;68894.78;;;23.16;100.00
5988;BME280;3021;51.000;6.980;2023-06-01T07:37:23;68872.00;;;22.95;100.00
5988;BME280;3021;51.000;6.980;2023-06-01T07:39:49;68858.47;;;22.81;100.00
5988;BME280;3021;51.000;6.980;2023-06-01T07:42:15;68857.28;;;22.80;100.00
5988;BME280;3021;51.000;6.980;2023-06-01T07:44:41;68873.06;;;22.94;100.00
5988;BME280;3021;51.000;6.980;2023-06-01T07:47:06;68865.72;;;22.92;100.00
5988;BME280;3021;51.000;6.980;2023-06-01T07:49:32;68851.00;;;22.77;100.00
5988;BME280;3021;51.000;6.980;2023-06-01T07:52:00;68826.03;;;22.57;100.00
5988;BME280;3021;51.000;6.980;2023-06-01T07:54:26;68825.34;;;22.54;100.00
5988;BME280;3021;51.000;6.980;2023-06-01T07:56:51;68845.28;;;22.74;100.00
5988;BME280;3021;51.000;6.980;2023-06-01T07:59:17;68868.50;;;22.92;100.00
5988;BME280;3021;51.000;6.980;2023-06-01T08:01:42;68859.63;;;22.82;100.00
5988;BME280;3021;51.000;6.980;2023-06-01T08:04:07;68803.16;;;22.35;100.00
5988;BME280;3021;51.000;6.980;2023-06-01T08:06:33;68824.16;;;22.53;100.00
5988;BME280;3021;51.000;6.980;2023-06-01T08:09:02;68891.28;;;23.12;100.00
5988;BME280;3021;51.000;6.980;2023-06-01T08:11:28;68969.97;;;23.79;100.00
5988;BME280;3021;51.000;6.980;2023-06-01T08:13:53;69001.75;;;24.12;100.00
5988;BME280;3021;51.000;6.980;2023-06-01T08:16:18;69023.25;;;24.29;100.00
5988;BME280;3021;51.000;6.980;2023-06-01T08:18:44;69049.06;;;24.54;100.00
5988;BME280;3021;51.000;6.980;2023-06-01T08:21:09;69031.41;;;24.36;100.00
5988;BME280;3021;51.000;6.980;2023-06-01T08:23:35;69009.69;;;24.14;100.00
5988;BME280;3021;51.000;6.980;2023-06-01T08:26:01;69039.13;;;24.45;100.00
5988;BME280;3021;51.000;6.980;2023-06-01T08:28:26;69040.88;;;24.47;100.00
5988;BME280;3021;51.000;6.980;2023-06-01T08:30:51;69066.50;;;24.67;100.00
5988;BME280;3021;51.000;6.980;2023-06-01T08:33:17;69214.97;;;25.98;100.00
5988;BME280;3021;51.000;6.980;2023-06-01T08:35:42;69452.03;;;28.06;100.00
5988;BME280;3021;51.000;6.980;2023-06-01T08:38:08;69602.78;;;29.41;100.00
5988;BME280;3021;51.000;6.980;2023-06-01T08:40:33;69859.75;;;31.67;100.00
5988;BME280;3021;51.000;6.980;2023-06-01T08:43:04;69894.38;;;31.97;100.00
5988;BME280;3021;51.000;6.980;2023-06-01T08:45:34;70026.06;;;33.15;100.00
5988;BME280;3021;51.000;6.980;2023-06-01T08:48:01;70317.78;;;35.71;97.02
5988;BME280;3021;51.000;6.980;2023-06-01T08:50:27;70547.38;;;37.69;90.92
5988;BME280;3021;51.000;6.980;2023-06-01T08:52:53;70595.19;;;38.13;87.19
5988;BME280;3021;51.000;6.980;2023-06-01T08:55:22;70602.78;;;38.17;81.14
5988;BME280;3021;51.000;6.980;2023-06-01T08:57:47;70480.22;;;37.10;83.81
5988;BME280;3021;51.000;6.980;2023-06-01T09:00:13;70318.84;;;35.69;83.94
5988;BME280;3021;51.000;6.980;2023-06-01T09:02:39;70362.44;;;36.07;83.55
5988;BME280;3021;51.000;6.980;2023-06-01T09:05:05;70368.91;;;36.13;83.03
5988;BME280;3021;51.000;6.980;2023-06-01T09:07:31;70299.44;;;35.52;83.78
5988;BME280;3021;51.000;6.980;2023-06-01T09:09:57;70213.63;;;34.79;84.06
5988;BME280;3021;51.000;6.980;2023-06-01T09:12:23;70270.09;;;35.29;82.70
5988;BME280;3021;51.000;6.980;2023-06-01T09:14:49;70235.88;;;34.96;84.45
5988;BME280;3021;51.000;6.980;2023-06-01T09:17:21;70241.78;;;35.02;81.30
5988;BME280;3021;51.000;6.980;2023-06-01T09:19:47;70269.44;;;35.26;80.60
5988;BME280;3021;51.000;6.980;2023-06-01T09:22:13;70383.03;;;36.25;80.81
5988;BME280;3021;51.000;6.980;2023-06-01T09:24:39;70559.75;;;37.80;77.20
5988;BME280;3021;51.000;6.980;2023-06-01T09:27:06;70628.22;;;38.42;75.99
5988;BME280;3021;51.000;6.980;2023-06-01T09:29:32;70743.13;;;39.40;74.03
5988;BME280;3021;51.000;6.980;2023-06-01T09:31:59;70586.28;;;38.03;72.74
5988;BME280;3021;51.000;6.980;2023-06-01T09:34:25;70647.56;;;38.57;72.20
5988;BME280;3021;51.000;6.980;2023-06-01T09:36:51;70523.31;;;37.50;73.51
5988;BME280;3021;51.000;6.980;2023-06-01T09:39:21;70601.09;;;38.18;71.94
5988;BME280;3021;51.000;6.980;2023-06-01T09:41:58;70610.63;;;38.29;70.76
5988;BME280;3021;51.000;6.980;2023-06-01T09:44:31;70663.00;;;38.72;70.20
5988;BME280;3021;51.000;6.980;2023-06-01T09:47:05;70600.50;;;38.18;70.12
5988;BME280;3021;51.000;6.980;2023-06-01T09:49:32;70674.13;;;38.80;69.50
5988;BME280;3021;51.000;6.980;2023-06-01T09:52:16;70635.88;;;38.49;69.50
5988;BME280;3021;51.000;6.980;2023-06-01T09:57:08;70494.94;;;37.23;71.19
5988;BME280;3021;51.000;6.980;2023-06-01T09:59:41;70440.84;;;36.78;69.76
5988;BME280;3021;51.000;6.980;2023-06-01T10:02:08;70484.41;;;37.16;70.15
5988;BME280;3021;51.000;6.980;2023-06-01T10:04:38;70496.59;;;37.22;70.48
5988;BME280;3021;51.000;6.980;2023-06-01T10:07:05;70469.59;;;37.01;69.65
5988;BME280;3021;51.000;6.980;2023-06-01T10:09:31;70420.72;;;36.58;70.82
5988;BME280;3021;51.000;6.980;2023-06-01T10:11:57;70356.53;;;36.02;69.84
5988;BME280;3021;51.000;6.980;2023-06-01T10:14:24;70331.13;;;35.77;70.49
5988;BME280;3021;51.000;6.980;2023-06-01T10:16:51;70307.19;;;35.61;72.16
5988;BME280;3021;51.000;6.980;2023-06-01T10:19:19;70402.47;;;36.42;72.17
5988;BME280;3021;51.000;6.980;2023-06-01T10:21:44;70431.31;;;36.67;70.78
5988;BME280;3021;51.000;6.980;2023-06-01T10:24:14;70506.72;;;37.33;71.02
5988;BME280;3021;51.000;6.980;2023-06-01T10:29:28;70527.34;;;37.51;69.57
5988;BME280;3021;51.000;6.980;2023-06-01T10:31:54;70556.75;;;37.75;70.21
5988;BME280;3021;51.000;6.980;2023-06-01T10:34:43;70631.75;;;38.45;68.35
5988;BME280;3021;51.000;6.980;2023-06-01T10:37:10;70620.53;;;38.35;66.77
5988;BME280;3021;51.000;6.980;2023-06-01T10:39:36;70605.03;;;38.17;67.89
5988;BME280;3021;51.000;6.980;2023-06-01T10:44:49;70744.38;;;39.44;64.79
5988;BME280;3021;51.000;6.980;2023-06-01T10:52:33;70746.06;;;39.43;65.18
5988;BME280;3021;51.000;6.980;2023-06-01T10:57:40;70799.75;;;39.89;64.22
5988;BME280;3021;51.000;6.980;2023-06-01T11:08:05;71232.81;;;43.72;57.83
5988;BME280;3021;51.000;6.980;2023-06-01T11:13:16;71251.06;;;43.86;55.27
5988;BME280;3021;51.000;6.980;2023-06-01T11:18:44;71163.44;;;43.04;55.02
5988;BME280;3021;51.000;6.980;2023-06-01T11:21:16;71320.84;;;44.46;55.24
5988;BME280;3021;51.000;6.980;2023-06-01T11:23:42;71346.22;;;44.66;53.85
5988;BME280;3021;51.000;6.980;2023-06-01T11:26:08;71299.63;;;44.30;53.25
5988;BME280;3021;51.000;6.980;2023-06-01T11:28:34;71320.84;;;44.46;53.09
5988;BME280;3021;51.000;6.980;2023-06-01T11:31:01;71283.00;;;44.13;52.00
5988;BME280;3021;51.000;6.980;2023-06-01T11:33:31;70950.25;;;41.21;52.83
5988;BME280;3021;51.000;6.980;2023-06-01T11:35:58;70549.72;;;37.71;58.47
5988;BME280;3021;51.000;6.980;2023-06-01T11:38:23;70255.22;;;35.11;61.16
5988;BME280;3021;51.000;6.980;2023-06-01T11:41:02;70010.00;;;32.96;65.86
5988;BME280;3021;51.000;6.980;2023-06-01T11:43:30;69804.97;;;31.14;68.07
5988;BME280;3021;51.000;6.980;2023-06-01T11:46:08;69654.97;;;29.87;71.98
5988;BME280;3021;51.000;6.980;2023-06-01T11:48:36;69611.44;;;29.46;72.33
5988;BME280;3021;51.000;6.980;2023-06-01T11:51:03;69735.31;;;30.58;72.19
5988;BME280;3021;51.000;6.980;2023-06-01T11:53:30;69677.81;;;30.07;72.71
5988;BME280;3021;51.000;6.980;2023-06-01T11:55:58;69471.97;;;28.24;76.22
5988;BME280;3021;51.000;6.980;2023-06-01T11:58:25;69315.03;;;26.86;83.45
5988;BME280;3021;51.000;6.980;2023-06-01T12:00:51;69197.31;;;25.80;89.91
5988;BME280;3021;51.000;6.980;2023-06-01T12:03:17;69144.69;;;25.33;96.64
5988;BME280;3021;51.000;6.980;2023-06-01T12:05:43;69102.59;;;24.96;99.09
5988;BME280;3021;51.000;6.980;2023-06-01T12:08:19;69075.16;;;24.72;96.90
5988;BME280;3021;51.000;6.980;2023-06-01T12:10:46;69041.81;;;24.43;100.00
5988;BME280;3021;51.000;6.980;2023-06-01T12:13:16;69013.78;;;24.18;100.00
5988;BME280;3021;51.000;6.980;2023-06-01T12:15:41;69016.81;;;24.23;100.00
5988;BME280;3021;51.000;6.980;2023-06-01T12:18:07;69019.63;;;24.23;100.00
5988;BME280;3021;51.000;6.980;2023-06-01T12:20:39;69010.88;;;24.15;100.00
5988;BME280;3021;51.000;6.980;2023-06-01T12:25:34;68993.34;;;24.00;100.00
5988;BME280;3021;51.000;6.980;2023-06-01T12:28:05;68986.91;;;23.94;100.00
5988;BME280;3021;51.000;6.980;2023-06-01T12:30:31;68989.28;;;23.96;100.00
5988;BME280;3021;51.000;6.980;2023-06-01T12:32:56;68982.84;;;23.91;100.00
5988;BME280;3021;51.000;6.980;2023-06-01T12:35:22;68965.88;;;23.76;100.00
5988;BME280;3021;51.000;6.980;2023-06-01T12:38:10;68948.97;;;23.61;100.00
5988;BME280;3021;51.000;6.980;2023-06-01T12:40:36;68955.97;;;23.67;100.00
5988;BME280;3021;51.000;6.980;2023-06-01T12:43:02;68960.16;;;23.73;100.00
5988;BME280;3021;51.000;6.980;2023-06-01T12:45:36;68953.63;;;23.65;100.00
5988;BME280;3021;51.000;6.980;2023-06-01T12:48:01;68949.06;;;23.63;100.00
5988;BME280;3021;51.000;6.980;2023-06-01T12:50:26;68960.16;;;23.73;100.00
5988;BME280;3021;51.000;6.980;2023-06-01T12:52:52;68948.97;;;23.61;100.00
5988;BME280;3021;51.000;6.980;2023-06-01T12:55:17;68921.03;;;23.39;100.00
5988;BME280;3021;51.000;6.980;2023-06-01T12:57:43;68923.38;;;23.41;100.00
5988;BME280;3021;51.000;6.980;2023-06-01T13:00:17;68929.91;;;23.49;100.00
5988;BME280;3021;51.000;6.980;2023-06-01T13:02:42;68947.22;;;23.59;100.00
5988;BME280;3021;51.000;6.980;2023-06-01T13:05:08;68946.03;;;23.58;100.00
5988;BME280;3021;51.000;6.980;2023-06-01T13:07:34;68929.81;;;23.46;100.00
5988;BME280;3021;51.000;6.980;2023-06-01T13:10:00;68935.50;;;23.49;100.00
5988;BME280;3021;51.000;6.980;2023-06-01T13:12:26;68942.66;;;23.58;100.00
5988;BME280;3021;51.000;6.980;2023-06-01T13:14:52;68968.22;;;23.78;100.00
5988;BME280;3021;51.000;6.980;2023-06-01T13:17:18;68970.06;;;23.82;100.00
5988;BME280;3021;51.000;6.980;2023-06-01T13:19:43;68967.19;;;23.79;100.00
5988;BME280;3021;51.000;6.980;2023-06-01T13:22:08;68941.34;;;23.54;100.00
5988;BME280;3021;51.000;6.980;2023-06-01T13:24:34;68930.38;;;23.47;100.00
5988;BME280;3021;51.000;6.980;2023-06-01T13:26:59;68909.50;;;23.31;100.00
5988;BME280;3021;51.000;6.980;2023-06-01T13:29:25;68907.75;;;23.29;100.00
5988;BME280;3021;51.000;6.980;2023-06-01T13:31:50;68901.31;;;23.24;100.00
5988;BME280;3021;51.000;6.980;2023-06-01T13:34:16;68920.47;;;23.38;100.00
5988;BME280;3021;51.000;6.980;2023-06-01T13:36:46;68938.44;;;23.52;100.00
5988;BME280;3021;51.000;6.980;2023-06-01T13:39:11;68922.78;;;23.40;100.00
5988;BME280;3021;51.000;6.980;2023-06-01T13:41:36;68933.75;;;23.47;100.00
5988;BME280;3021;51.000;6.980;2023-06-01T13:44:02;68939.72;;;23.55;100.00
5988;BME280;3021;51.000;6.980;2023-06-01T13:46:27;68923.97;;;23.41;100.00
5988;BME280;3021;51.000;6.980;2023-06-01T13:48:53;68935.50;;;23.49;100.00
5988;BME280;3021;51.000;6.980;2023-06-01T13:51:18;68942.75;;;23.60;100.00